sensor_id;sensor_type;location;lat;lon;timestamp;P1;durP1;ratioP1;P2;durP2;ratioP2
68812;SDS011;55808;48.112;11.552;2022-08-11T00:00:43;30.67;;;28.80;;
68812;SDS011;55808;48.112;11.552;2022-08-11T00:03:11;31.70;;;29.60;;
68812;SDS011;55808;48.112;11.552;2022-08-11T00:05:43;32.07;;;29.67;;
68812;SDS011;55808;48.112;11.552;2022-08-11T00:08:09;32.47;;;30.17;;
68812;SDS011;55808;48.112;11.552;2022-08-11T00:10:36;28.73;;;27.03;;
68812;SDS011;55808;48.112;11.552;2022-08-11T00:13:03;34.13;;;31.13;;
68812;SDS011;55808;48.112;11.552;2022-08-11T00:15:41;34.23;;;31.27;;
68812;SDS011;55808;48.112;11.552;2022-08-11T00:18:09;31.03;;;28.87;;
68812;SDS011;55808;48.112;11.552;2022-08-11T00:20:37;32.07;;;29.97;;
68812;SDS011;55808;48.112;11.552;2022-08-11T00:23:08;32.80;;;30.37;;
68812;SDS011;55808;48.112;11.552;2022-08-11T00:25:39;30.60;;;28.50;;
68812;SDS011;55808;48.112;11.552;2022-08-11T00:28:26;31.77;;;29.70;;
68812;SDS011;55808;48.112;11.552;2022-08-11T00:30:56;32.33;;;29.93;;
68812;SDS011;55808;48.112;11.552;2022-08-11T00:33:29;33.03;;;30.50;;
68812;SDS011;55808;48.112;11.552;2022-08-11T00:36:04;32.33;;;29.93;;
68812;SDS011;55808;48.112;11.552;2022-08-11T00:38:32;30.90;;;28.80;;
68812;SDS011;55808;48.112;11.552;2022-08-11T00:49:29;31.07;;;29.03;;
68812;SDS011;55808;48.112;11.552;2022-08-11T00:52:09;33.50;;;30.53;;
68812;SDS011;55808;48.112;11.552;2022-08-11T00:55:06;31.30;;;29.00;;
68812;SDS011;55808;48.112;11.552;2022-08-11T01:06:27;31.50;;;29.27;;
68812;SDS011;55808;48.112;11.552;2022-08-11T01:12:08;30.87;;;28.77;;
68812;SDS011;55808;48.112;11.552;2022-08-11T01:17:57;32.60;;;29.70;;
68812;SDS011;55808;48.112;11.552;2022-08-11T01:27:09;30.27;;;28.33;;
68812;SDS011;55808;48.112;11.552;2022-08-11T01:44:02;31.20;;;28.67;;
68812;SDS011;55808;48.112;11.552;2022-08-11T01:53:11;28.70;;;26.87;;
68812;SDS011;55808;48.112;11.552;2022-08-11T01:55:50;30.50;;;28.27;;
68812;SDS011;55808;48.112;11.552;2022-08-11T02:01:29;29.43;;;27.47;;
68812;SDS011;55808;48.112;11.552;2022-08-11T02:07:10;28.87;;;27.37;;
68812;SDS011;55808;48.112;11.552;2022-08-11T02:20:13;29.37;;;27.57;;
68812;SDS011;55808;48.112;11.552;2022-08-11T02:26:02;29.17;;;26.77;;
68812;SDS011;55808;48.112;11.552;2022-08-11T02:37:13;29.13;;;27.07;;
68812;SDS011;55808;48.112;11.552;2022-08-11T02:40:09;29.27;;;27.33;;
68812;SDS011;55808;48.112;11.552;2022-08-11T02:48:35;28.23;;;26.40;;
68812;SDS011;55808;48.112;11.552;2022-08-11T03:02:26;28.20;;;26.70;;
68812;SDS011;55808;48.112;11.552;2022-08-11T03:05:11;28.80;;;27.30;;
68812;SDS011;55808;48.112;11.552;2022-08-11T03:16:39;31.07;;;28.37;;
68812;SDS011;55808;48.112;11.552;2022-08-11T03:24:55;28.00;;;26.00;;
68812;SDS011;55808;48.112;11.552;2022-08-11T03:30:25;31.40;;;29.13;;
68812;SDS011;55808;48.112;11.552;2022-08-11T03:33:16;28.90;;;26.80;;
68812;SDS011;55808;48.112;11.552;2022-08-11T03:39:41;29.97;;;27.70;;
68812;SDS011;55808;48.112;11.552;2022-08-11T03:42:15;29.03;;;26.93;;
68812;SDS011;55808;48.112;11.552;2022-08-11T03:48:02;30.60;;;28.30;;
68812;SDS011;55808;48.112;11.552;2022-08-11T03:59:15;28.23;;;26.57;;
68812;SDS011;55808;48.112;11.552;2022-08-11T04:04:57;28.00;;;26.30;;
68812;SDS011;55808;48.112;11.552;2022-08-11T04:10:35;28.83;;;26.37;;
68812;SDS011;55808;48.112;11.552;2022-08-11T04:17:06;28.07;;;26.37;;
68812;SDS011;55808;48.112;11.552;2022-08-11T04:22:25;29.10;;;27.13;;
68812;SDS011;55808;48.112;11.552;2022-08-11T04:31:46;28.87;;;26.87;;
68812;SDS011;55808;48.112;11.552;2022-08-11T04:34:02;29.37;;;27.20;;
68812;SDS011;55808;48.112;11.552;2022-08-11T04:51:55;30.27;;;27.90;;
68812;SDS011;55808;48.112;11.552;2022-08-11T04:54:52;29.07;;;27.17;;
68812;SDS011;55808;48.112;11.552;2022-08-11T05:13:04;29.13;;;27.23;;
68812;SDS011;55808;48.112;11.552;2022-08-11T05:15:53;29.93;;;27.63;;
68812;SDS011;55808;48.112;11.552;2022-08-11T05:18:45;28.10;;;26.30;;
68812;SDS011;55808;48.112;11.552;2022-08-11T05:21:33;29.30;;;27.43;;
68812;SDS011;55808;48.112;11.552;2022-08-11T05:24:19;28.87;;;26.93;;
68812;SDS011;55808;48.112;11.552;2022-08-11T05:27:12;29.37;;;27.27;;
68812;SDS011;55808;48.112;11.552;2022-08-11T05:30:02;29.87;;;27.70;;
68812;SDS011;55808;48.112;11.552;2022-08-11T05:32:58;29.00;;;27.07;;
68812;SDS011;55808;48.112;11.552;2022-08-11T05:35:48;29.30;;;27.60;;
68812;SDS011;55808;48.112;11.552;2022-08-11T05:38:25;29.13;;;27.20;;
68812;SDS011;55808;48.112;11.552;2022-08-11T05:41:13;27.30;;;26.00;;
68812;SDS011;55808;48.112;11.552;2022-08-11T05:43:58;28.70;;;27.20;;
68812;SDS011;55808;48.112;11.552;2022-08-11T05:46:46;28.00;;;26.40;;
68812;SDS011;55808;48.112;11.552;2022-08-11T05:49:32;29.40;;;27.67;;
68812;SDS011;55808;48.112;11.552;2022-08-11T05:52:25;28.90;;;27.20;;
68812;SDS011;55808;48.112;11.552;2022-08-11T05:55:12;29.70;;;27.80;;
68812;SDS011;55808;48.112;11.552;2022-08-11T05:57:59;29.87;;;27.90;;
68812;SDS011;55808;48.112;11.552;2022-08-11T06:00:42;33.93;;;30.67;;
68812;SDS011;55808;48.112;11.552;2022-08-11T06:03:10;37.43;;;30.37;;
68812;SDS011;55808;48.112;11.552;2022-08-11T06:05:46;31.10;;;28.60;;
68812;SDS011;55808;48.112;11.552;2022-08-11T06:08:12;31.47;;;29.17;;
68812;SDS011;55808;48.112;11.552;2022-08-11T06:10:42;31.70;;;28.87;;
68812;SDS011;55808;48.112;11.552;2022-08-11T06:13:09;31.50;;;29.17;;
68812;SDS011;55808;48.112;11.552;2022-08-11T06:15:44;30.30;;;28.50;;
68812;SDS011;55808;48.112;11.552;2022-08-11T06:18:12;33.27;;;30.90;;
68812;SDS011;55808;48.112;11.552;2022-08-11T06:20:50;31.53;;;29.03;;
68812;SDS011;55808;48.112;11.552;2022-08-11T06:23:21;30.80;;;28.80;;
68812;SDS011;55808;48.112;11.552;2022-08-11T06:25:50;30.53;;;28.17;;
68812;SDS011;55808;48.112;11.552;2022-08-11T06:28:19;32.60;;;30.43;;
68812;SDS011;55808;48.112;11.552;2022-08-11T06:30:55;33.67;;;30.90;;
68812;SDS011;55808;48.112;11.552;2022-08-11T06:33:36;31.37;;;29.47;;
68812;SDS011;55808;48.112;11.552;2022-08-11T06:36:15;29.17;;;27.13;;
68812;SDS011;55808;48.112;11.552;2022-08-11T06:41:58;32.40;;;30.03;;
68812;SDS011;55808;48.112;11.552;2022-08-11T06:44:32;31.63;;;29.47;;
68812;SDS011;55808;48.112;11.552;2022-08-11T06:47:17;31.93;;;29.87;;
68812;SDS011;55808;48.112;11.552;2022-08-11T06:49:45;31.17;;;28.90;;
68812;SDS011;55808;48.112;11.552;2022-08-11T06:52:31;31.37;;;29.07;;
68812;SDS011;55808;48.112;11.552;2022-08-11T06:55:00;29.90;;;28.20;;
68812;SDS011;55808;48.112;11.552;2022-08-11T06:57:34;33.57;;;30.70;;
68812;SDS011;55808;48.112;11.552;2022-08-11T07:00:21;31.00;;;28.63;;
68812;SDS011;55808;48.112;11.552;2022-08-11T07:03:05;31.57;;;29.50;;
68812;SDS011;55808;48.112;11.552;2022-08-11T07:14:32;30.00;;;28.17;;
68812;SDS011;55808;48.112;11.552;2022-08-11T07:17:21;31.83;;;29.67;;
68812;SDS011;55808;48.112;11.552;2022-08-11T07:19:51;32.33;;;29.73;;
68812;SDS011;55808;48.112;11.552;2022-08-11T07:22:38;30.70;;;28.70;;
68812;SDS011;55808;48.112;11.552;2022-08-11T07:25:33;30.70;;;29.00;;
68812;SDS011;55808;48.112;11.552;2022-08-11T07:28:26;38.97;;;32.93;;
68812;SDS011;55808;48.112;11.552;2022-08-11T07:31:16;31.03;;;29.23;;
68812;SDS011;55808;48.112;11.552;2022-08-11T07:37:09;33.87;;;31.17;;
68812;SDS011;55808;48.112;11.552;2022-08-11T07:39:42;33.37;;;31.10;;
68812;SDS011;55808;48.112;11.552;2022-08-11T07:42:12;32.87;;;30.57;;
68812;SDS011;55808;48.112;11.552;2022-08-11T07:44:54;33.20;;;31.00;;
68812;SDS011;55808;48.112;11.552;2022-08-11T07:47:40;32.20;;;30.23;;
68812;SDS011;55808;48.112;11.552;2022-08-11T07:50:27;32.43;;;30.53;;
68812;SDS011;55808;48.112;11.552;2022-08-11T07:53:12;32.70;;;30.80;;
68812;SDS011;55808;48.112;11.552;2022-08-11T07:55:40;32.40;;;30.27;;
68812;SDS011;55808;48.112;11.552;2022-08-11T07:58:07;32.23;;;30.57;;
68812;SDS011;55808;48.112;11.552;2022-08-11T08:00:53;34.07;;;31.57;;
68812;SDS011;55808;48.112;11.552;2022-08-11T08:03:40;33.27;;;31.13;;
68812;SDS011;55808;48.112;11.552;2022-08-11T08:06:27;34.00;;;31.77;;
68812;SDS011;55808;48.112;11.552;2022-08-11T08:09:13;31.77;;;29.80;;
68812;SDS011;55808;48.112;11.552;2022-08-11T08:12:00;33.23;;;31.10;;
68812;SDS011;55808;48.112;11.552;2022-08-11T08:14:46;34.37;;;32.33;;
68812;SDS011;55808;48.112;11.552;2022-08-11T08:17:31;32.87;;;31.10;;
68812;SDS011;55808;48.112;11.552;2022-08-11T08:20:22;34.00;;;31.67;;
68812;SDS011;55808;48.112;11.552;2022-08-11T08:22:50;34.77;;;32.30;;
68812;SDS011;55808;48.112;11.552;2022-08-11T08:25:30;33.07;;;31.20;;
68812;SDS011;55808;48.112;11.552;2022-08-11T08:27:57;33.10;;;30.80;;
68812;SDS011;55808;48.112;11.552;2022-08-11T08:30:25;33.80;;;31.70;;
68812;SDS011;55808;48.112;11.552;2022-08-11T08:33:15;34.23;;;32.33;;
68812;SDS011;55808;48.112;11.552;2022-08-11T08:35:42;34.57;;;32.47;;
68812;SDS011;55808;48.112;11.552;2022-08-11T08:38:09;35.40;;;32.87;;
68812;SDS011;55808;48.112;11.552;2022-08-11T08:40:37;37.63;;;34.47;;
68812;SDS011;55808;48.112;11.552;2022-08-11T08:43:07;34.33;;;32.20;;
68812;SDS011;55808;48.112;11.552;2022-08-11T08:45:39;34.87;;;32.40;;
68812;SDS011;55808;48.112;11.552;2022-08-11T08:48:11;36.70;;;34.17;;
68812;SDS011;55808;48.112;11.552;2022-08-11T08:50:42;35.80;;;33.57;;
68812;SDS011;55808;48.112;11.552;2022-08-11T08:53:43;33.67;;;31.63;;
68812;SDS011;55808;48.112;11.552;2022-08-11T08:56:14;35.50;;;33.10;;
68812;SDS011;55808;48.112;11.552;2022-08-11T08:58:40;35.13;;;33.00;;
68812;SDS011;55808;48.112;11.552;2022-08-11T09:01:09;34.10;;;32.23;;
68812;SDS011;55808;48.112;11.552;2022-08-11T09:03:38;38.00;;;34.43;;
68812;SDS011;55808;48.112;11.552;2022-08-11T09:06:04;34.07;;;32.07;;
68812;SDS011;55808;48.112;11.552;2022-08-11T09:08:31;34.27;;;32.37;;
68812;SDS011;55808;48.112;11.552;2022-08-11T09:10:59;35.17;;;33.20;;
68812;SDS011;55808;48.112;11.552;2022-08-11T09:13:45;36.93;;;34.40;;
68812;SDS011;55808;48.112;11.552;2022-08-11T09:16:11;35.53;;;33.47;;
68812;SDS011;55808;48.112;11.552;2022-08-11T09:18:38;38.93;;;35.70;;
68812;SDS011;55808;48.112;11.552;2022-08-11T09:21:10;36.33;;;34.23;;
68812;SDS011;55808;48.112;11.552;2022-08-11T09:23:38;35.70;;;33.53;;
68812;SDS011;55808;48.112;11.552;2022-08-11T09:26:24;34.30;;;32.10;;
68812;SDS011;55808;48.112;11.552;2022-08-11T09:29:09;37.17;;;34.33;;
68812;SDS011;55808;48.112;11.552;2022-08-11T09:31:35;35.40;;;33.00;;
68812;SDS011;55808;48.112;11.552;2022-08-11T09:34:02;36.97;;;34.60;;
68812;SDS011;55808;48.112;11.552;2022-08-11T09:36:28;35.77;;;33.73;;
68812;SDS011;55808;48.112;11.552;2022-08-11T09:39:13;37.33;;;34.87;;
68812;SDS011;55808;48.112;11.552;2022-08-11T09:42:01;36.20;;;34.13;;
68812;SDS011;55808;48.112;11.552;2022-08-11T09:44:28;36.57;;;34.30;;
68812;SDS011;55808;48.112;11.552;2022-08-11T09:47:21;40.40;;;36.67;;
68812;SDS011;55808;48.112;11.552;2022-08-11T09:49:49;37.87;;;35.37;;
68812;SDS011;55808;48.112;11.552;2022-08-11T09:52:26;37.57;;;34.80;;
68812;SDS011;55808;48.112;11.552;2022-08-11T09:55:03;37.17;;;35.10;;
68812;SDS011;55808;48.112;11.552;2022-08-11T09:57:34;38.47;;;35.67;;
68812;SDS011;55808;48.112;11.552;2022-08-11T10:00:27;39.13;;;36.47;;
68812;SDS011;55808;48.112;11.552;2022-08-11T10:03:11;40.33;;;36.80;;
68812;SDS011;55808;48.112;11.552;2022-08-11T10:05:39;37.43;;;35.03;;
68812;SDS011;55808;48.112;11.552;2022-08-11T10:08:29;37.00;;;34.47;;
68812;SDS011;55808;48.112;11.552;2022-08-11T10:10:57;40.63;;;37.53;;
68812;SDS011;55808;48.112;11.552;2022-08-11T10:13:32;46.83;;;40.47;;
68812;SDS011;55808;48.112;11.552;2022-08-11T10:16:02;38.73;;;36.23;;
68812;SDS011;55808;48.112;11.552;2022-08-11T10:18:33;40.37;;;37.33;;
68812;SDS011;55808;48.112;11.552;2022-08-11T10:21:10;37.63;;;35.20;;
68812;SDS011;55808;48.112;11.552;2022-08-11T10:23:38;39.43;;;37.00;;
68812;SDS011;55808;48.112;11.552;2022-08-11T10:26:24;38.17;;;35.77;;
68812;SDS011;55808;48.112;11.552;2022-08-11T10:29:23;39.17;;;36.53;;
68812;SDS011;55808;48.112;11.552;2022-08-11T10:32:13;40.50;;;37.30;;
68812;SDS011;55808;48.112;11.552;2022-08-11T10:35:06;40.17;;;38.00;;
68812;SDS011;55808;48.112;11.552;2022-08-11T10:37:33;41.50;;;38.77;;
68812;SDS011;55808;48.112;11.552;2022-08-11T10:40:01;40.40;;;38.03;;
68812;SDS011;55808;48.112;11.552;2022-08-11T10:42:29;40.50;;;38.23;;
68812;SDS011;55808;48.112;11.552;2022-08-11T10:45:22;43.50;;;40.83;;
68812;SDS011;55808;48.112;11.552;2022-08-11T10:48:07;47.17;;;43.17;;
68812;SDS011;55808;48.112;11.552;2022-08-11T10:50:34;44.53;;;42.23;;
68812;SDS011;55808;48.112;11.552;2022-08-11T10:53:19;45.43;;;42.40;;
68812;SDS011;55808;48.112;11.552;2022-08-11T10:56:06;44.70;;;42.33;;
68812;SDS011;55808;48.112;11.552;2022-08-11T10:58:51;45.77;;;43.33;;
68812;SDS011;55808;48.112;11.552;2022-08-11T11:03:48;49.70;;;46.73;;
68812;SDS011;55808;48.112;11.552;2022-08-11T11:09:15;45.90;;;43.87;;
68812;SDS011;55808;48.112;11.552;2022-08-11T11:11:58;44.93;;;43.00;;
68812;SDS011;55808;48.112;11.552;2022-08-11T11:14:46;48.73;;;45.33;;
68812;SDS011;55808;48.112;11.552;2022-08-11T11:17:40;49.77;;;47.17;;
68812;SDS011;55808;48.112;11.552;2022-08-11T11:23:37;47.75;;;45.40;;
68812;SDS011;55808;48.112;11.552;2022-08-11T11:37:31;51.45;;;48.75;;
68812;SDS011;55808;48.112;11.552;2022-08-11T11:40:01;51.47;;;48.50;;
68812;SDS011;55808;48.112;11.552;2022-08-11T11:42:34;49.65;;;46.83;;
68812;SDS011;55808;48.112;11.552;2022-08-11T11:45:00;51.08;;;48.03;;
68812;SDS011;55808;48.112;11.552;2022-08-11T11:47:27;47.53;;;45.17;;
68812;SDS011;55808;48.112;11.552;2022-08-11T11:49:56;50.90;;;47.72;;
68812;SDS011;55808;48.112;11.552;2022-08-11T11:52:22;48.92;;;46.25;;
68812;SDS011;55808;48.112;11.552;2022-08-11T11:54:49;47.75;;;45.47;;
68812;SDS011;55808;48.112;11.552;2022-08-11T11:57:19;42.08;;;39.92;;
68812;SDS011;55808;48.112;11.552;2022-08-11T12:00:05;45.00;;;42.13;;
68812;SDS011;55808;48.112;11.552;2022-08-11T12:02:51;43.53;;;41.13;;
68812;SDS011;55808;48.112;11.552;2022-08-11T12:05:21;44.42;;;41.97;;
68812;SDS011;55808;48.112;11.552;2022-08-11T12:07:48;45.00;;;42.60;;
68812;SDS011;55808;48.112;11.552;2022-08-11T12:10:32;44.10;;;41.30;;
68812;SDS011;55808;48.112;11.552;2022-08-11T12:12:58;45.10;;;42.03;;
68812;SDS011;55808;48.112;11.552;2022-08-11T12:15:46;44.33;;;41.78;;
68812;SDS011;55808;48.112;11.552;2022-08-11T12:18:13;42.05;;;39.58;;
68812;SDS011;55808;48.112;11.552;2022-08-11T12:20:42;41.95;;;40.00;;
68812;SDS011;55808;48.112;11.552;2022-08-11T12:23:09;43.15;;;41.08;;
68812;SDS011;55808;48.112;11.552;2022-08-11T12:25:54;43.42;;;41.00;;
68812;SDS011;55808;48.112;11.552;2022-08-11T12:28:40;42.33;;;40.28;;
68812;SDS011;55808;48.112;11.552;2022-08-11T12:31:06;44.45;;;41.97;;
68812;SDS011;55808;48.112;11.552;2022-08-11T12:33:34;41.55;;;39.60;;
68812;SDS011;55808;48.112;11.552;2022-08-11T12:36:01;43.75;;;41.65;;
68812;SDS011;55808;48.112;11.552;2022-08-11T12:38:28;43.67;;;41.60;;
68812;SDS011;55808;48.112;11.552;2022-08-11T12:40:54;45.25;;;42.67;;
68812;SDS011;55808;48.112;11.552;2022-08-11T12:43:40;40.10;;;38.35;;
68812;SDS011;55808;48.112;11.552;2022-08-11T12:46:28;41.75;;;39.58;;
68812;SDS011;55808;48.112;11.552;2022-08-11T12:48:58;41.72;;;39.50;;
68812;SDS011;55808;48.112;11.552;2022-08-11T12:51:48;43.70;;;41.60;;
68812;SDS011;55808;48.112;11.552;2022-08-11T12:56:49;40.67;;;38.83;;
68812;SDS011;55808;48.112;11.552;2022-08-11T12:59:40;42.97;;;40.67;;
68812;SDS011;55808;48.112;11.552;2022-08-11T13:02:25;43.58;;;41.17;;
68812;SDS011;55808;48.112;11.552;2022-08-11T13:05:13;40.72;;;38.88;;
68812;SDS011;55808;48.112;11.552;2022-08-11T13:07:41;42.35;;;40.40;;
68812;SDS011;55808;48.112;11.552;2022-08-11T13:10:08;43.25;;;41.05;;
68812;SDS011;55808;48.112;11.552;2022-08-11T13:12:36;42.50;;;40.40;;
68812;SDS011;55808;48.112;11.552;2022-08-11T13:15:19;42.53;;;40.63;;
68812;SDS011;55808;48.112;11.552;2022-08-11T13:17:48;42.87;;;40.70;;
68812;SDS011;55808;48.112;11.552;2022-08-11T13:20:19;41.90;;;40.20;;
68812;SDS011;55808;48.112;11.552;2022-08-11T13:22:47;41.33;;;39.30;;
68812;SDS011;55808;48.112;11.552;2022-08-11T13:25:15;42.03;;;40.20;;
68812;SDS011;55808;48.112;11.552;2022-08-11T13:27:43;42.03;;;40.27;;
68812;SDS011;55808;48.112;11.552;2022-08-11T13:30:10;42.80;;;40.50;;
68812;SDS011;55808;48.112;11.552;2022-08-11T13:32:57;43.27;;;40.90;;
68812;SDS011;55808;48.112;11.552;2022-08-11T13:35:24;41.13;;;39.33;;
68812;SDS011;55808;48.112;11.552;2022-08-11T13:37:52;41.83;;;39.90;;
68812;SDS011;55808;48.112;11.552;2022-08-11T13:40:20;41.60;;;38.83;;
68812;SDS011;55808;48.112;11.552;2022-08-11T13:42:47;41.27;;;39.47;;
68812;SDS011;55808;48.112;11.552;2022-08-11T13:45:13;42.00;;;40.00;;
68812;SDS011;55808;48.112;11.552;2022-08-11T13:47:40;44.17;;;40.93;;
68812;SDS011;55808;48.112;11.552;2022-08-11T13:50:07;41.87;;;39.70;;
68812;SDS011;55808;48.112;11.552;2022-08-11T13:52:34;42.53;;;40.20;;
68812;SDS011;55808;48.112;11.552;2022-08-11T13:55:03;42.77;;;40.50;;
68812;SDS011;55808;48.112;11.552;2022-08-11T13:57:30;42.33;;;40.23;;
68812;SDS011;55808;48.112;11.552;2022-08-11T13:59:58;39.67;;;37.97;;
68812;SDS011;55808;48.112;11.552;2022-08-11T14:02:34;42.73;;;40.60;;
68812;SDS011;55808;48.112;11.552;2022-08-11T14:05:12;41.27;;;39.10;;
68812;SDS011;55808;48.112;11.552;2022-08-11T14:07:51;43.03;;;40.73;;
68812;SDS011;55808;48.112;11.552;2022-08-11T14:10:20;43.83;;;41.27;;
68812;SDS011;55808;48.112;11.552;2022-08-11T14:12:59;42.80;;;40.50;;
68812;SDS011;55808;48.112;11.552;2022-08-11T14:15:46;41.17;;;39.13;;
68812;SDS011;55808;48.112;11.552;2022-08-11T14:20:51;42.70;;;40.50;;
68812;SDS011;55808;48.112;11.552;2022-08-11T14:23:42;43.70;;;41.37;;
68812;SDS011;55808;48.112;11.552;2022-08-11T14:26:12;41.03;;;38.87;;
68812;SDS011;55808;48.112;11.552;2022-08-11T14:28:57;42.90;;;40.27;;
68812;SDS011;55808;48.112;11.552;2022-08-11T14:31:25;41.70;;;39.37;;
68812;SDS011;55808;48.112;11.552;2022-08-11T14:33:54;39.53;;;37.40;;
68812;SDS011;55808;48.112;11.552;2022-08-11T14:36:23;40.83;;;38.53;;
68812;SDS011;55808;48.112;11.552;2022-08-11T14:38:51;43.23;;;40.43;;
68812;SDS011;55808;48.112;11.552;2022-08-11T14:41:20;38.90;;;36.77;;
68812;SDS011;55808;48.112;11.552;2022-08-11T14:44:07;40.43;;;38.33;;
68812;SDS011;55808;48.112;11.552;2022-08-11T14:46:52;40.50;;;38.13;;
68812;SDS011;55808;48.112;11.552;2022-08-11T14:49:34;40.87;;;38.47;;
68812;SDS011;55808;48.112;11.552;2022-08-11T14:52:19;39.30;;;37.50;;
68812;SDS011;55808;48.112;11.552;2022-08-11T14:54:45;41.53;;;39.07;;
68812;SDS011;55808;48.112;11.552;2022-08-11T14:57:32;39.53;;;37.73;;
68812;SDS011;55808;48.112;11.552;2022-08-11T15:00:03;42.00;;;39.40;;
68812;SDS011;55808;48.112;11.552;2022-08-11T15:02:30;40.10;;;37.90;;
68812;SDS011;55808;48.112;11.552;2022-08-11T15:05:20;38.57;;;36.73;;
68812;SDS011;55808;48.112;11.552;2022-08-11T15:07:47;39.37;;;37.47;;
68812;SDS011;55808;48.112;11.552;2022-08-11T15:10:15;40.53;;;38.33;;
68812;SDS011;55808;48.112;11.552;2022-08-11T15:12:42;39.63;;;37.33;;
68812;SDS011;55808;48.112;11.552;2022-08-11T15:15:09;42.60;;;39.87;;
68812;SDS011;55808;48.112;11.552;2022-08-11T15:17:56;41.83;;;39.30;;
68812;SDS011;55808;48.112;11.552;2022-08-11T15:20:24;39.70;;;37.50;;
68812;SDS011;55808;48.112;11.552;2022-08-11T15:23:11;38.70;;;36.53;;
68812;SDS011;55808;48.112;11.552;2022-08-11T15:25:57;39.67;;;36.87;;
68812;SDS011;55808;48.112;11.552;2022-08-11T15:28:27;37.80;;;35.70;;
68812;SDS011;55808;48.112;11.552;2022-08-11T15:31:14;39.43;;;37.10;;
68812;SDS011;55808;48.112;11.552;2022-08-11T15:34:07;38.70;;;36.43;;
68812;SDS011;55808;48.112;11.552;2022-08-11T15:36:58;38.73;;;36.33;;
68812;SDS011;55808;48.112;11.552;2022-08-11T15:42:39;39.00;;;36.67;;
68812;SDS011;55808;48.112;11.552;2022-08-11T15:45:49;40.87;;;37.20;;
68812;SDS011;55808;48.112;11.552;2022-08-11T15:50:53;36.27;;;34.27;;
68812;SDS011;55808;48.112;11.552;2022-08-11T15:55:51;35.23;;;33.47;;
68812;SDS011;55808;48.112;11.552;2022-08-11T15:58:19;36.40;;;34.77;;
68812;SDS011;55808;48.112;11.552;2022-08-11T16:01:28;39.67;;;37.03;;
68812;SDS011;55808;48.112;11.552;2022-08-11T16:04:18;38.03;;;35.53;;
68812;SDS011;55808;48.112;11.552;2022-08-11T16:07:02;37.13;;;35.00;;
68812;SDS011;55808;48.112;11.552;2022-08-11T16:09:38;37.40;;;35.20;;
68812;SDS011;55808;48.112;11.552;2022-08-11T16:12:07;37.57;;;35.57;;
68812;SDS011;55808;48.112;11.552;2022-08-11T16:14:36;35.17;;;33.47;;
68812;SDS011;55808;48.112;11.552;2022-08-11T16:17:25;36.73;;;34.67;;
68812;SDS011;55808;48.112;11.552;2022-08-11T16:19:54;35.37;;;33.43;;
68812;SDS011;55808;48.112;11.552;2022-08-11T16:22:23;36.90;;;34.87;;
68812;SDS011;55808;48.112;11.552;2022-08-11T16:24:59;37.07;;;34.70;;
68812;SDS011;55808;48.112;11.552;2022-08-11T16:27:27;36.23;;;34.23;;
68812;SDS011;55808;48.112;11.552;2022-08-11T16:29:57;35.93;;;33.80;;
68812;SDS011;55808;48.112;11.552;2022-08-11T16:32:25;36.43;;;34.50;;
68812;SDS011;55808;48.112;11.552;2022-08-11T16:34:54;38.73;;;35.83;;
68812;SDS011;55808;48.112;11.552;2022-08-11T16:37:44;38.37;;;35.50;;
68812;SDS011;55808;48.112;11.552;2022-08-11T16:40:31;37.17;;;34.73;;
68812;SDS011;55808;48.112;11.552;2022-08-11T16:42:57;37.13;;;34.90;;
68812;SDS011;55808;48.112;11.552;2022-08-11T16:45:43;37.07;;;34.97;;
68812;SDS011;55808;48.112;11.552;2022-08-11T16:48:30;38.40;;;35.47;;
68812;SDS011;55808;48.112;11.552;2022-08-11T16:50:58;40.03;;;36.10;;
68812;SDS011;55808;48.112;11.552;2022-08-11T16:53:25;37.10;;;34.73;;
68812;SDS011;55808;48.112;11.552;2022-08-11T16:55:54;36.73;;;34.70;;
68812;SDS011;55808;48.112;11.552;2022-08-11T16:58:24;36.60;;;34.47;;
68812;SDS011;55808;48.112;11.552;2022-08-11T17:01:10;35.53;;;33.73;;
68812;SDS011;55808;48.112;11.552;2022-08-11T17:03:42;36.27;;;34.30;;
68812;SDS011;55808;48.112;11.552;2022-08-11T17:06:31;35.80;;;34.10;;
68812;SDS011;55808;48.112;11.552;2022-08-11T17:09:18;36.10;;;34.27;;
68812;SDS011;55808;48.112;11.552;2022-08-11T17:12:05;36.23;;;34.50;;
68812;SDS011;55808;48.112;11.552;2022-08-11T17:14:54;37.23;;;35.00;;
68812;SDS011;55808;48.112;11.552;2022-08-11T17:17:25;40.20;;;36.83;;
68812;SDS011;55808;48.112;11.552;2022-08-11T17:19:54;36.67;;;34.83;;
68812;SDS011;55808;48.112;11.552;2022-08-11T17:22:25;37.20;;;34.57;;
68812;SDS011;55808;48.112;11.552;2022-08-11T17:25:12;34.27;;;32.87;;
68812;SDS011;55808;48.112;11.552;2022-08-11T17:27:39;34.57;;;33.07;;
68812;SDS011;55808;48.112;11.552;2022-08-11T17:30:07;34.03;;;32.23;;
68812;SDS011;55808;48.112;11.552;2022-08-11T17:32:35;36.77;;;34.83;;
68812;SDS011;55808;48.112;11.552;2022-08-11T17:35:22;34.60;;;32.67;;
68812;SDS011;55808;48.112;11.552;2022-08-11T17:38:00;36.10;;;34.00;;
68812;SDS011;55808;48.112;11.552;2022-08-11T17:40:26;37.10;;;35.00;;
68812;SDS011;55808;48.112;11.552;2022-08-11T17:42:53;36.00;;;33.70;;
68812;SDS011;55808;48.112;11.552;2022-08-11T17:45:40;36.30;;;34.17;;
68812;SDS011;55808;48.112;11.552;2022-08-11T17:48:08;35.77;;;33.67;;
68812;SDS011;55808;48.112;11.552;2022-08-11T17:50:50;37.70;;;35.10;;
68812;SDS011;55808;48.112;11.552;2022-08-11T17:53:18;36.60;;;34.50;;
68812;SDS011;55808;48.112;11.552;2022-08-11T17:56:03;35.67;;;33.43;;
68812;SDS011;55808;48.112;11.552;2022-08-11T17:58:49;36.73;;;34.50;;
68812;SDS011;55808;48.112;11.552;2022-08-11T18:01:36;37.50;;;35.42;;
68812;SDS011;55808;48.112;11.552;2022-08-11T18:04:03;19.10;;;18.03;;
68812;SDS011;55808;48.112;11.552;2022-08-11T18:06:31;29.97;;;28.10;;
68812;SDS011;55808;48.112;11.552;2022-08-11T18:08:58;31.27;;;29.20;;
68812;SDS011;55808;48.112;11.552;2022-08-11T18:11:46;32.57;;;29.97;;
68812;SDS011;55808;48.112;11.552;2022-08-11T18:14:33;30.37;;;28.57;;
68812;SDS011;55808;48.112;11.552;2022-08-11T18:17:20;32.60;;;30.17;;
68812;SDS011;55808;48.112;11.552;2022-08-11T18:20:04;35.45;;;32.47;;
68812;SDS011;55808;48.112;11.552;2022-08-11T18:22:49;33.27;;;30.77;;
68812;SDS011;55808;48.112;11.552;2022-08-11T18:25:38;16.77;;;15.20;;
68812;SDS011;55808;48.112;11.552;2022-08-11T18:28:26;15.27;;;13.93;;
68812;SDS011;55808;48.112;11.552;2022-08-11T18:31:15;14.57;;;13.10;;
68812;SDS011;55808;48.112;11.552;2022-08-11T18:34:03;15.93;;;14.47;;
68812;SDS011;55808;48.112;11.552;2022-08-11T18:37:26;14.60;;;13.47;;
68812;SDS011;55808;48.112;11.552;2022-08-11T18:40:07;14.37;;;13.07;;
68812;SDS011;55808;48.112;11.552;2022-08-11T18:42:59;14.27;;;13.27;;
68812;SDS011;55808;48.112;11.552;2022-08-11T18:45:52;15.90;;;14.37;;
68812;SDS011;55808;48.112;11.552;2022-08-11T18:48:45;16.10;;;14.53;;
68812;SDS011;55808;48.112;11.552;2022-08-11T18:51:32;19.43;;;15.30;;
68812;SDS011;55808;48.112;11.552;2022-08-11T18:54:21;18.17;;;16.27;;